sensor_id;sensor_type;location;lat;lon;timestamp;P1;durP1;ratioP1;P2;durP2;ratioP2
23078;SDS011;11707;50.830;4.364;2024-03-23T00:56:17;16.00;;;3.92;;
23078;SDS011;11707;50.830;4.364;2024-03-23T00:58:43;17.00;;;4.57;;
23078;SDS011;11707;50.830;4.364;2024-03-23T01:01:08;14.02;;;4.95;;
23078;SDS011;11707;50.830;4.364;2024-03-23T01:03:34;12.55;;;4.03;;
23078;SDS011;11707;50.830;4.364;2024-03-23T01:06:00;14.68;;;4.28;;
23078;SDS011;11707;50.830;4.364;2024-03-23T01:08:26;7.38;;;3.80;;
23078;SDS011;11707;50.830;4.364;2024-03-23T01:10:55;18.83;;;4.38;;
23078;SDS011;11707;50.830;4.364;2024-03-23T01:13:22;11.68;;;4.00;;
23078;SDS011;11707;50.830;4.364;2024-03-23T01:15:52;12.50;;;4.18;;
23078;SDS011;11707;50.830;4.364;2024-03-23T01:18:19;14.52;;;4.93;;
23078;SDS011;11707;50.830;4.364;2024-03-23T01:20:45;11.93;;;5.13;;
23078;SDS011;11707;50.830;4.364;2024-03-23T01:23:11;19.85;;;4.82;;
23078;SDS011;11707;50.830;4.364;2024-03-23T01:25:37;13.02;;;4.97;;
23078;SDS011;11707;50.830;4.364;2024-03-23T01:28:03;11.30;;;4.35;;
23078;SDS011;11707;50.830;4.364;2024-03-23T01:30:31;17.95;;;5.00;;
23078;SDS011;11707;50.830;4.364;2024-03-23T01:32:57;16.38;;;5.65;;
23078;SDS011;11707;50.830;4.364;2024-03-23T01:35:23;25.17;;;6.60;;
23078;SDS011;11707;50.830;4.364;2024-03-23T01:37:48;16.00;;;6.72;;
23078;SDS011;11707;50.830;4.364;2024-03-23T01:40:17;16.52;;;6.38;;
23078;SDS011;11707;50.830;4.364;2024-03-23T01:42:43;18.70;;;7.32;;
23078;SDS011;11707;50.830;4.364;2024-03-23T01:45:21;18.13;;;6.65;;
23078;SDS011;11707;50.830;4.364;2024-03-23T01:47:49;19.05;;;7.70;;
23078;SDS011;11707;50.830;4.364;2024-03-23T01:50:20;17.35;;;7.57;;
23078;SDS011;11707;50.830;4.364;2024-03-23T01:52:46;17.83;;;6.95;;
23078;SDS011;11707;50.830;4.364;2024-03-23T01:55:15;19.50;;;7.43;;
23078;SDS011;11707;50.830;4.364;2024-03-23T01:57:43;19.10;;;7.07;;
23078;SDS011;11707;50.830;4.364;2024-03-23T02:00:09;18.92;;;8.00;;
23078;SDS011;11707;50.830;4.364;2024-03-23T02:02:40;18.75;;;7.53;;
23078;SDS011;11707;50.830;4.364;2024-03-23T02:05:10;20.00;;;7.23;;
23078;SDS011;11707;50.830;4.364;2024-03-23T02:07:40;18.08;;;7.22;;
23078;SDS011;11707;50.830;4.364;2024-03-23T02:10:09;22.67;;;7.60;;
23078;SDS011;11707;50.830;4.364;2024-03-23T02:12:38;21.10;;;8.05;;
23078;SDS011;11707;50.830;4.364;2024-03-23T02:15:03;24.08;;;8.95;;
23078;SDS011;11707;50.830;4.364;2024-03-23T02:17:30;19.40;;;7.97;;
23078;SDS011;11707;50.830;4.364;2024-03-23T02:19:59;18.58;;;8.25;;
23078;SDS011;11707;50.830;4.364;2024-03-23T02:22:25;22.85;;;10.20;;
23078;SDS011;11707;50.830;4.364;2024-03-23T02:25:00;23.58;;;9.70;;
23078;SDS011;11707;50.830;4.364;2024-03-23T02:27:27;29.67;;;11.40;;
23078;SDS011;11707;50.830;4.364;2024-03-23T02:29:53;26.60;;;9.70;;
23078;SDS011;11707;50.830;4.364;2024-03-23T02:32:21;21.02;;;10.90;;
23078;SDS011;11707;50.830;4.364;2024-03-23T02:34:47;29.50;;;11.73;;
23078;SDS011;11707;50.830;4.364;2024-03-23T02:37:15;24.77;;;12.05;;
23078;SDS011;11707;50.830;4.364;2024-03-23T02:39:40;24.63;;;11.57;;
23078;SDS011;11707;50.830;4.364;2024-03-23T02:42:06;24.38;;;10.20;;
23078;SDS011;11707;50.830;4.364;2024-03-23T02:44:32;29.38;;;10.57;;
23078;SDS011;11707;50.830;4.364;2024-03-23T02:47:00;26.98;;;10.85;;
23078;SDS011;11707;50.830;4.364;2024-03-23T02:49:26;28.65;;;10.70;;
23078;SDS011;11707;50.830;4.364;2024-03-23T02:51:52;29.02;;;11.10;;
23078;SDS011;11707;50.830;4.364;2024-03-23T02:54:17;27.98;;;12.25;;
23078;SDS011;11707;50.830;4.364;2024-03-23T02:56:43;33.97;;;11.80;;
23078;SDS011;11707;50.830;4.364;2024-03-23T02:59:14;33.13;;;11.73;;
23078;SDS011;11707;50.830;4.364;2024-03-23T03:01:40;35.85;;;12.55;;
23078;SDS011;11707;50.830;4.364;2024-03-23T03:04:08;28.65;;;11.73;;
23078;SDS011;11707;50.830;4.364;2024-03-23T03:06:36;34.10;;;12.35;;
23078;SDS011;11707;50.830;4.364;2024-03-23T03:09:02;19.58;;;11.23;;
23078;SDS011;11707;50.830;4.364;2024-03-23T03:11:27;30.55;;;12.52;;
23078;SDS011;11707;50.830;4.364;2024-03-23T03:13:56;24.95;;;11.65;;
23078;SDS011;11707;50.830;4.364;2024-03-23T03:16:22;30.25;;;12.45;;
23078;SDS011;11707;50.830;4.364;2024-03-23T03:18:47;24.30;;;11.52;;
23078;SDS011;11707;50.830;4.364;2024-03-23T03:21:13;26.17;;;11.30;;
23078;SDS011;11707;50.830;4.364;2024-03-23T03:23:41;29.58;;;12.50;;
23078;SDS011;11707;50.830;4.364;2024-03-23T03:26:07;23.58;;;12.35;;
23078;SDS011;11707;50.830;4.364;2024-03-23T03:28:33;34.20;;;13.23;;
23078;SDS011;11707;50.830;4.364;2024-03-23T03:30:59;34.40;;;13.18;;
23078;SDS011;11707;50.830;4.364;2024-03-23T03:33:28;25.17;;;11.15;;
23078;SDS011;11707;50.830;4.364;2024-03-23T03:35:54;30.90;;;12.95;;
23078;SDS011;11707;50.830;4.364;2024-03-23T03:38:20;29.45;;;14.27;;
23078;SDS011;11707;50.830;4.364;2024-03-23T03:40:46;29.73;;;14.18;;
23078;SDS011;11707;50.830;4.364;2024-03-23T03:43:12;31.33;;;13.85;;
23078;SDS011;11707;50.830;4.364;2024-03-23T03:45:37;23.20;;;13.13;;
23078;SDS011;11707;50.830;4.364;2024-03-23T03:48:03;28.73;;;13.95;;
23078;SDS011;11707;50.830;4.364;2024-03-23T03:50:29;27.45;;;14.15;;
23078;SDS011;11707;50.830;4.364;2024-03-23T03:52:55;43.67;;;13.13;;
23078;SDS011;11707;50.830;4.364;2024-03-23T03:55:21;33.60;;;14.20;;
23078;SDS011;11707;50.830;4.364;2024-03-23T03:57:47;23.42;;;12.75;;
23078;SDS011;11707;50.830;4.364;2024-03-23T04:00:12;30.98;;;13.43;;
23078;SDS011;11707;50.830;4.364;2024-03-23T04:02:41;25.75;;;12.30;;
23078;SDS011;11707;50.830;4.364;2024-03-23T04:05:07;26.50;;;12.98;;
23078;SDS011;11707;50.830;4.364;2024-03-23T04:07:33;32.13;;;13.50;;
23078;SDS011;11707;50.830;4.364;2024-03-23T04:09:59;23.42;;;11.70;;
23078;SDS011;11707;50.830;4.364;2024-03-23T04:12:27;31.88;;;12.43;;
23078;SDS011;11707;50.830;4.364;2024-03-23T04:14:53;26.98;;;11.02;;
23078;SDS011;11707;50.830;4.364;2024-03-23T04:17:19;19.65;;;9.10;;
23078;SDS011;11707;50.830;4.364;2024-03-23T04:19:44;20.52;;;9.55;;
23078;SDS011;11707;50.830;4.364;2024-03-23T04:22:10;22.52;;;8.77;;
23078;SDS011;11707;50.830;4.364;2024-03-23T04:24:38;22.05;;;10.15;;
23078;SDS011;11707;50.830;4.364;2024-03-23T04:27:04;21.92;;;8.38;;
23078;SDS011;11707;50.830;4.364;2024-03-23T04:29:30;16.55;;;8.73;;
23078;SDS011;11707;50.830;4.364;2024-03-23T04:31:56;22.60;;;7.97;;
23078;SDS011;11707;50.830;4.364;2024-03-23T04:34:21;22.33;;;8.00;;
23078;SDS011;11707;50.830;4.364;2024-03-23T04:36:48;23.40;;;7.57;;
23078;SDS011;11707;50.830;4.364;2024-03-23T04:39:16;21.70;;;8.43;;
23078;SDS011;11707;50.830;4.364;2024-03-23T04:41:42;19.38;;;7.97;;
23078;SDS011;11707;50.830;4.364;2024-03-23T04:44:10;16.92;;;7.15;;
23078;SDS011;11707;50.830;4.364;2024-03-23T04:46:35;17.85;;;7.60;;
23078;SDS011;11707;50.830;4.364;2024-03-23T04:49:01;15.32;;;6.65;;
23078;SDS011;11707;50.830;4.364;2024-03-23T04:51:34;21.10;;;7.45;;
23078;SDS011;11707;50.830;4.364;2024-03-23T04:54:02;21.88;;;8.43;;
23078;SDS011;11707;50.830;4.364;2024-03-23T04:56:29;18.83;;;8.68;;
23078;SDS011;11707;50.830;4.364;2024-03-23T04:58:55;26.38;;;8.25;;
23078;SDS011;11707;50.830;4.364;2024-03-23T05:01:26;19.65;;;7.28;;
23078;SDS011;11707;50.830;4.364;2024-03-23T05:03:54;16.65;;;8.15;;
23078;SDS011;11707;50.830;4.364;2024-03-23T05:06:20;17.52;;;7.00;;
23078;SDS011;11707;50.830;4.364;2024-03-23T05:08:47;19.48;;;7.38;;
23078;SDS011;11707;50.830;4.364;2024-03-23T05:11:13;22.67;;;7.35;;
23078;SDS011;11707;50.830;4.364;2024-03-23T05:13:39;17.48;;;7.70;;
23078;SDS011;11707;50.830;4.364;2024-03-23T05:16:05;20.40;;;8.18;;
23078;SDS011;11707;50.830;4.364;2024-03-23T05:18:30;19.50;;;7.15;;
23078;SDS011;11707;50.830;4.364;2024-03-23T05:20:56;17.02;;;6.57;;
23078;SDS011;11707;50.830;4.364;2024-03-23T05:23:23;18.42;;;7.65;;
23078;SDS011;11707;50.830;4.364;2024-03-23T05:25:51;17.27;;;7.05;;
23078;SDS011;11707;50.830;4.364;2024-03-23T05:28:22;17.38;;;6.60;;
23078;SDS011;11707;50.830;4.364;2024-03-23T05:30:51;19.83;;;6.75;;
23078;SDS011;11707;50.830;4.364;2024-03-23T05:33:18;17.35;;;7.32;;
23078;SDS011;11707;50.830;4.364;2024-03-23T05:35:47;15.65;;;6.85;;
23078;SDS011;11707;50.830;4.364;2024-03-23T05:38:20;10.48;;;5.75;;
23078;SDS011;11707;50.830;4.364;2024-03-23T05:40:53;13.07;;;5.70;;
23078;SDS011;11707;50.830;4.364;2024-03-23T05:43:22;13.15;;;5.57;;
23078;SDS011;11707;50.830;4.364;2024-03-23T05:45:55;13.13;;;4.95;;
23078;SDS011;11707;50.830;4.364;2024-03-23T05:48:25;17.52;;;5.88;;
23078;SDS011;11707;50.830;4.364;2024-03-23T05:50:51;16.33;;;5.28;;
23078;SDS011;11707;50.830;4.364;2024-03-23T05:53:17;19.92;;;6.18;;
23078;SDS011;11707;50.830;4.364;2024-03-23T05:55:44;22.20;;;7.95;;
23078;SDS011;11707;50.830;4.364;2024-03-23T05:58:10;14.18;;;5.93;;
23078;SDS011;11707;50.830;4.364;2024-03-23T06:00:36;20.85;;;5.45;;
23078;SDS011;11707;50.830;4.364;2024-03-23T06:03:02;16.27;;;4.15;;
23078;SDS011;11707;50.830;4.364;2024-03-23T06:05:28;15.63;;;4.72;;
23078;SDS011;11707;50.830;4.364;2024-03-23T06:07:56;10.18;;;3.50;;
23078;SDS011;11707;50.830;4.364;2024-03-23T06:10:22;15.77;;;3.65;;
23078;SDS011;11707;50.830;4.364;2024-03-23T06:12:48;12.85;;;3.17;;
23078;SDS011;11707;50.830;4.364;2024-03-23T06:15:16;20.58;;;3.58;;
23078;SDS011;11707;50.830;4.364;2024-03-23T06:17:43;21.60;;;3.55;;
23078;SDS011;11707;50.830;4.364;2024-03-23T06:20:09;18.15;;;3.40;;
23078;SDS011;11707;50.830;4.364;2024-03-23T06:22:35;11.73;;;2.83;;
23078;SDS011;11707;50.830;4.364;2024-03-23T06:25:01;17.83;;;3.35;;
23078;SDS011;11707;50.830;4.364;2024-03-23T06:27:27;18.30;;;4.05;;
23078;SDS011;11707;50.830;4.364;2024-03-23T06:29:53;16.08;;;2.90;;
23078;SDS011;11707;50.830;4.364;2024-03-23T06:32:18;20.05;;;3.42;;
23078;SDS011;11707;50.830;4.364;2024-03-23T06:34:45;13.00;;;3.05;;
23078;SDS011;11707;50.830;4.364;2024-03-23T06:37:11;14.63;;;3.65;;
23078;SDS011;11707;50.830;4.364;2024-03-23T06:39:37;11.88;;;3.28;;
23078;SDS011;11707;50.830;4.364;2024-03-23T06:42:06;18.05;;;3.17;;
23078;SDS011;11707;50.830;4.364;2024-03-23T06:44:33;11.77;;;3.95;;
23078;SDS011;11707;50.830;4.364;2024-03-23T06:46:58;15.82;;;3.75;;
23078;SDS011;11707;50.830;4.364;2024-03-23T06:49:24;11.30;;;3.45;;
23078;SDS011;11707;50.830;4.364;2024-03-23T06:51:52;15.68;;;3.38;;
23078;SDS011;11707;50.830;4.364;2024-03-23T06:54:18;20.40;;;4.40;;
23078;SDS011;11707;50.830;4.364;2024-03-23T06:56:46;20.73;;;4.05;;
23078;SDS011;11707;50.830;4.364;2024-03-23T06:59:15;12.90;;;3.05;;
23078;SDS011;11707;50.830;4.364;2024-03-23T07:01:43;11.05;;;3.17;;
23078;SDS011;11707;50.830;4.364;2024-03-23T07:04:08;16.55;;;3.50;;
23078;SDS011;11707;50.830;4.364;2024-03-23T07:06:34;14.18;;;4.55;;
23078;SDS011;11707;50.830;4.364;2024-03-23T07:09:08;12.25;;;3.90;;
23078;SDS011;11707;50.830;4.364;2024-03-23T07:11:33;12.07;;;3.53;;
23078;SDS011;11707;50.830;4.364;2024-03-23T07:13:59;14.68;;;3.67;;
23078;SDS011;11707;50.830;4.364;2024-03-23T07:16:26;19.13;;;3.25;;
23078;SDS011;11707;50.830;4.364;2024-03-23T07:18:52;10.85;;;3.28;;
23078;SDS011;11707;50.830;4.364;2024-03-23T07:21:20;17.92;;;3.72;;
23078;SDS011;11707;50.830;4.364;2024-03-23T07:23:47;17.52;;;4.10;;
23078;SDS011;11707;50.830;4.364;2024-03-23T07:26:12;10.95;;;2.63;;
23078;SDS011;11707;50.830;4.364;2024-03-23T07:28:38;16.83;;;4.15;;
23078;SDS011;11707;50.830;4.364;2024-03-23T07:31:09;12.75;;;3.97;;
23078;SDS011;11707;50.830;4.364;2024-03-23T07:33:36;12.00;;;3.30;;
23078;SDS011;11707;50.830;4.364;2024-03-23T07:36:06;18.08;;;3.22;;
23078;SDS011;11707;50.830;4.364;2024-03-23T07:38:32;19.10;;;3.67;;
23078;SDS011;11707;50.830;4.364;2024-03-23T07:41:10;15.82;;;3.65;;
23078;SDS011;11707;50.830;4.364;2024-03-23T07:43:39;17.45;;;3.95;;
23078;SDS011;11707;50.830;4.364;2024-03-23T07:46:07;10.07;;;3.70;;
23078;SDS011;11707;50.830;4.364;2024-03-23T07:48:33;8.57;;;3.55;;
23078;SDS011;11707;50.830;4.364;2024-03-23T07:53:44;13.95;;;4.18;;
23078;SDS011;11707;50.830;4.364;2024-03-23T07:56:13;17.75;;;4.22;;
23078;SDS011;11707;50.830;4.364;2024-03-23T07:58:46;14.63;;;3.17;;
23078;SDS011;11707;50.830;4.364;2024-03-23T08:01:13;21.02;;;4.45;;
23078;SDS011;11707;50.830;4.364;2024-03-23T08:03:44;17.17;;;3.92;;
23078;SDS011;11707;50.830;4.364;2024-03-23T08:08:37;15.23;;;4.22;;
23078;SDS011;11707;50.830;4.364;2024-03-23T08:11:03;15.40;;;3.95;;
23078;SDS011;11707;50.830;4.364;2024-03-23T08:13:29;11.20;;;3.67;;
23078;SDS011;11707;50.830;4.364;2024-03-23T08:15:56;10.13;;;2.78;;
23078;SDS011;11707;50.830;4.364;2024-03-23T08:18:22;18.77;;;4.13;;
23078;SDS011;11707;50.830;4.364;2024-03-23T08:20:55;16.77;;;3.95;;
23078;SDS011;11707;50.830;4.364;2024-03-23T08:23:31;10.73;;;3.17;;
23078;SDS011;11707;50.830;4.364;2024-03-23T08:26:09;9.18;;;3.45;;
23078;SDS011;11707;50.830;4.364;2024-03-23T08:28:39;14.27;;;3.83;;
23078;SDS011;11707;50.830;4.364;2024-03-23T08:31:08;15.75;;;3.58;;
23078;SDS011;11707;50.830;4.364;2024-03-23T08:33:34;11.23;;;3.58;;
23078;SDS011;11707;50.830;4.364;2024-03-23T08:36:01;16.90;;;3.60;;
23078;SDS011;11707;50.830;4.364;2024-03-23T08:38:31;12.07;;;4.53;;
23078;SDS011;11707;50.830;4.364;2024-03-23T08:40:57;15.88;;;3.47;;
23078;SDS011;11707;50.830;4.364;2024-03-23T08:43:23;10.05;;;3.65;;
23078;SDS011;11707;50.830;4.364;2024-03-23T08:45:52;15.18;;;3.90;;
23078;SDS011;11707;50.830;4.364;2024-03-23T08:48:21;12.45;;;2.75;;
23078;SDS011;11707;50.830;4.364;2024-03-23T08:53:31;12.27;;;3.08;;
23078;SDS011;11707;50.830;4.364;2024-03-23T08:55:57;16.10;;;3.47;;
23078;SDS011;11707;50.830;4.364;2024-03-23T08:58:24;14.85;;;2.63;;
23078;SDS011;11707;50.830;4.364;2024-03-23T09:00:53;11.48;;;3.60;;
23078;SDS011;11707;50.830;4.364;2024-03-23T09:03:21;11.00;;;2.55;;
23078;SDS011;11707;50.830;4.364;2024-03-23T09:05:50;19.02;;;3.38;;
23078;SDS011;11707;50.830;4.364;2024-03-23T09:08:19;15.60;;;2.88;;
23078;SDS011;11707;50.830;4.364;2024-03-23T09:10:44;10.15;;;2.70;;
23078;SDS011;11707;50.830;4.364;2024-03-23T09:13:10;10.10;;;2.78;;
23078;SDS011;11707;50.830;4.364;2024-03-23T09:15:37;12.55;;;2.85;;
23078;SDS011;11707;50.830;4.364;2024-03-23T09:18:10;7.88;;;2.47;;
23078;SDS011;11707;50.830;4.364;2024-03-23T09:20:36;12.40;;;2.83;;
23078;SDS011;11707;50.830;4.364;2024-03-23T09:23:02;9.75;;;2.53;;
23078;SDS011;11707;50.830;4.364;2024-03-23T09:25:27;13.95;;;3.35;;
23078;SDS011;11707;50.830;4.364;2024-03-23T09:27:53;8.05;;;2.72;;
23078;SDS011;11707;50.830;4.364;2024-03-23T09:30:19;11.70;;;2.90;;
23078;SDS011;11707;50.830;4.364;2024-03-23T09:32:47;10.40;;;3.60;;
23078;SDS011;11707;50.830;4.364;2024-03-23T09:35:13;10.40;;;2.95;;
23078;SDS011;11707;50.830;4.364;2024-03-23T09:37:39;8.63;;;2.35;;
23078;SDS011;11707;50.830;4.364;2024-03-23T09:40:05;6.57;;;2.50;;
23078;SDS011;11707;50.830;4.364;2024-03-23T09:42:38;8.00;;;3.50;;
23078;SDS011;11707;50.830;4.364;2024-03-23T09:45:08;7.50;;;2.55;;
23078;SDS011;11707;50.830;4.364;2024-03-23T09:47:40;10.10;;;2.45;;
23078;SDS011;11707;50.830;4.364;2024-03-23T09:50:06;10.25;;;2.90;;
23078;SDS011;11707;50.830;4.364;2024-03-23T09:52:35;8.75;;;2.60;;
23078;SDS011;11707;50.830;4.364;2024-03-23T09:55:00;10.30;;;2.67;;
23078;SDS011;11707;50.830;4.364;2024-03-23T09:57:29;10.13;;;2.72;;
23078;SDS011;11707;50.830;4.364;2024-03-23T09:59:59;8.77;;;2.92;;
23078;SDS011;11707;50.830;4.364;2024-03-23T10:02:25;10.77;;;3.83;;
23078;SDS011;11707;50.830;4.364;2024-03-23T10:04:56;11.55;;;2.78;;
23078;SDS011;11707;50.830;4.364;2024-03-23T10:07:22;11.23;;;3.13;;
23078;SDS011;11707;50.830;4.364;2024-03-23T10:09:48;8.35;;;2.88;;
23078;SDS011;11707;50.830;4.364;2024-03-23T10:12:16;7.15;;;2.70;;
23078;SDS011;11707;50.830;4.364;2024-03-23T10:14:43;9.02;;;2.60;;
23078;SDS011;11707;50.830;4.364;2024-03-23T10:17:19;9.10;;;3.05;;
23078;SDS011;11707;50.830;4.364;2024-03-23T10:19:51;6.68;;;2.55;;
23078;SDS011;11707;50.830;4.364;2024-03-23T10:24:44;7.03;;;2.63;;
23078;SDS011;11707;50.830;4.364;2024-03-23T10:27:16;11.05;;;2.33;;
23078;SDS011;11707;50.830;4.364;2024-03-23T10:29:44;9.43;;;2.78;;
23078;SDS011;11707;50.830;4.364;2024-03-23T10:32:11;8.88;;;2.78;;
23078;SDS011;11707;50.830;4.364;2024-03-23T10:34:38;5.55;;;2.10;;
23078;SDS011;11707;50.830;4.364;2024-03-23T10:37:04;7.75;;;2.42;;
23078;SDS011;11707;50.830;4.364;2024-03-23T10:39:34;8.30;;;2.22;;
23078;SDS011;11707;50.830;4.364;2024-03-23T10:42:02;6.20;;;1.80;;
23078;SDS011;11707;50.830;4.364;2024-03-23T10:44:35;9.65;;;2.30;;
23078;SDS011;11707;50.830;4.364;2024-03-23T10:47:01;10.93;;;2.95;;
23078;SDS011;11707;50.830;4.364;2024-03-23T10:49:31;11.68;;;2.20;;
23078;SDS011;11707;50.830;4.364;2024-03-23T10:52:01;10.75;;;2.05;;
23078;SDS011;11707;50.830;4.364;2024-03-23T10:54:30;4.82;;;1.75;;
23078;SDS011;11707;50.830;4.364;2024-03-23T10:57:05;9.73;;;2.33;;
23078;SDS011;11707;50.830;4.364;2024-03-23T10:59:34;7.60;;;2.20;;
23078;SDS011;11707;50.830;4.364;2024-03-23T11:02:02;8.60;;;2.15;;
23078;SDS011;11707;50.830;4.364;2024-03-23T11:04:29;5.47;;;2.08;;
23078;SDS011;11707;50.830;4.364;2024-03-23T11:07:49;6.35;;;2.13;;
23078;SDS011;11707;50.830;4.364;2024-03-23T11:09:56;8.25;;;1.75;;
23078;SDS011;11707;50.830;4.364;2024-03-23T11:12:28;8.48;;;2.15;;
23078;SDS011;11707;50.830;4.364;2024-03-23T11:15:00;9.35;;;1.83;;
23078;SDS011;11707;50.830;4.364;2024-03-23T11:17:32;7.25;;;1.92;;
23078;SDS011;11707;50.830;4.364;2024-03-23T11:25:12;5.68;;;1.85;;
23078;SDS011;11707;50.830;4.364;2024-03-23T11:27:39;7.03;;;1.83;;
23078;SDS011;11707;50.830;4.364;2024-03-23T11:32:51;8.70;;;1.70;;
23078;SDS011;11707;50.830;4.364;2024-03-23T11:35:34;5.65;;;1.98;;
23078;SDS011;11707;50.830;4.364;2024-03-23T11:40:31;6.57;;;1.65;;
23078;SDS011;11707;50.830;4.364;2024-03-23T11:42:59;6.30;;;1.38;;
23078;SDS011;11707;50.830;4.364;2024-03-23T11:45:28;4.80;;;1.65;;
23078;SDS011;11707;50.830;4.364;2024-03-23T11:48:04;7.78;;;1.60;;
23078;SDS011;11707;50.830;4.364;2024-03-23T11:50:31;4.53;;;1.40;;
23078;SDS011;11707;50.830;4.364;2024-03-23T11:53:16;7.32;;;1.80;;
23078;SDS011;11707;50.830;4.364;2024-03-23T11:58:20;9.52;;;1.70;;
23078;SDS011;11707;50.830;4.364;2024-03-23T12:03:30;5.45;;;1.52;;
23078;SDS011;11707;50.830;4.364;2024-03-23T12:05:59;6.22;;;1.73;;
23078;SDS011;11707;50.830;4.364;2024-03-23T12:08:33;9.98;;;1.70;;
23078;SDS011;11707;50.830;4.364;2024-03-23T12:11:13;7.57;;;1.95;;
23078;SDS011;11707;50.830;4.364;2024-03-23T12:13:40;12.45;;;1.98;;
23078;SDS011;11707;50.830;4.364;2024-03-23T12:18:41;10.57;;;2.17;;
23078;SDS011;11707;50.830;4.364;2024-03-23T12:21:08;5.85;;;1.10;;
23078;SDS011;11707;50.830;4.364;2024-03-23T12:23:34;6.60;;;2.05;;
23078;SDS011;11707;50.830;4.364;2024-03-23T12:26:00;5.97;;;1.70;;
23078;SDS011;11707;50.830;4.364;2024-03-23T12:28:27;5.90;;;1.70;;
23078;SDS011;11707;50.830;4.364;2024-03-23T12:30:53;6.20;;;1.38;;
23078;SDS011;11707;50.830;4.364;2024-03-23T12:33:19;4.80;;;1.13;;
23078;SDS011;11707;50.830;4.364;2024-03-23T12:35:48;5.18;;;1.40;;
23078;SDS011;11707;50.830;4.364;2024-03-23T12:38:15;6.82;;;1.38;;
23078;SDS011;11707;50.830;4.364;2024-03-23T12:40:40;11.18;;;2.05;;
23078;SDS011;11707;50.830;4.364;2024-03-23T12:43:06;9.30;;;2.10;;
23078;SDS011;11707;50.830;4.364;2024-03-23T12:45:35;15.15;;;2.53;;
23078;SDS011;11707;50.830;4.364;2024-03-23T12:48:01;6.20;;;1.42;;
23078;SDS011;11707;50.830;4.364;2024-03-23T12:50:26;14.60;;;2.42;;
23078;SDS011;11707;50.830;4.364;2024-03-23T12:52:53;7.25;;;2.10;;
23078;SDS011;11707;50.830;4.364;2024-03-23T12:55:18;10.23;;;1.85;;
23078;SDS011;11707;50.830;4.364;2024-03-23T12:57:45;7.82;;;1.95;;
23078;SDS011;11707;50.830;4.364;2024-03-23T13:00:11;8.65;;;1.50;;
23078;SDS011;11707;50.830;4.364;2024-03-23T13:02:38;5.18;;;1.23;;
23078;SDS011;11707;50.830;4.364;2024-03-23T13:05:04;6.38;;;1.45;;
23078;SDS011;11707;50.830;4.364;2024-03-23T13:07:30;8.57;;;2.22;;
23078;SDS011;11707;50.830;4.364;2024-03-23T13:09:56;4.97;;;1.55;;
23078;SDS011;11707;50.830;4.364;2024-03-23T13:12:24;4.22;;;1.17;;
23078;SDS011;11707;50.830;4.364;2024-03-23T13:14:49;4.32;;;1.50;;
23078;SDS011;11707;50.830;4.364;2024-03-23T13:17:15;4.85;;;1.23;;
23078;SDS011;11707;50.830;4.364;2024-03-23T13:19:41;4.47;;;1.30;;
23078;SDS011;11707;50.830;4.364;2024-03-23T13:22:07;8.55;;;1.88;;
23078;SDS011;11707;50.830;4.364;2024-03-23T13:24:33;6.03;;;1.55;;
23078;SDS011;11707;50.830;4.364;2024-03-23T13:26:59;4.70;;;1.08;;
23078;SDS011;11707;50.830;4.364;2024-03-23T13:29:24;5.75;;;1.15;;
23078;SDS011;11707;50.830;4.364;2024-03-23T13:31:50;4.43;;;0.90;;
23078;SDS011;11707;50.830;4.364;2024-03-23T13:34:17;6.10;;;1.70;;
23078;SDS011;11707;50.830;4.364;2024-03-23T13:36:46;6.40;;;1.25;;
23078;SDS011;11707;50.830;4.364;2024-03-23T13:39:12;5.35;;;1.52;;
23078;SDS011;11707;50.830;4.364;2024-03-23T13:41:39;5.82;;;1.63;;
23078;SDS011;11707;50.830;4.364;2024-03-23T13:44:09;6.47;;;1.42;;
23078;SDS011;11707;50.830;4.364;2024-03-23T13:46:39;5.38;;;1.10;;
23078;SDS011;11707;50.830;4.364;2024-03-23T13:49:08;5.80;;;1.10;;
23078;SDS011;11707;50.830;4.364;2024-03-23T13:51:54;7.30;;;1.45;;
23078;SDS011;11707;50.830;4.364;2024-03-23T13:54:22;4.22;;;1.42;;
23078;SDS011;11707;50.830;4.364;2024-03-23T13:56:49;8.32;;;1.08;;
23078;SDS011;11707;50.830;4.364;2024-03-23T13:59:19;6.28;;;1.40;;
23078;SDS011;11707;50.830;4.364;2024-03-23T14:01:45;7.22;;;1.55;;
23078;SDS011;11707;50.830;4.364;2024-03-23T14:04:15;4.35;;;1.48;;
23078;SDS011;11707;50.830;4.364;2024-03-23T14:06:45;5.47;;;1.45;;
23078;SDS011;11707;50.830;4.364;2024-03-23T14:09:11;5.00;;;1.20;;
23078;SDS011;11707;50.830;4.364;2024-03-23T14:11:37;7.15;;;1.92;;
23078;SDS011;11707;50.830;4.364;2024-03-23T14:14:03;10.40;;;1.90;;
23078;SDS011;11707;50.830;4.364;2024-03-23T14:16:32;5.00;;;1.35;;
23078;SDS011;11707;50.830;4.364;2024-03-23T14:18:58;3.75;;;0.90;;
23078;SDS011;11707;50.830;4.364;2024-03-23T14:21:26;5.95;;;1.30;;
23078;SDS011;11707;50.830;4.364;2024-03-23T14:23:52;8.68;;;1.95;;
23078;SDS011;11707;50.830;4.364;2024-03-23T14:26:19;5.68;;;1.17;;
23078;SDS011;11707;50.830;4.364;2024-03-23T14:28:45;4.25;;;1.70;;
23078;SDS011;11707;50.830;4.364;2024-03-23T14:31:11;7.63;;;1.50;;
23078;SDS011;11707;50.830;4.364;2024-03-23T14:33:37;5.47;;;1.48;;
23078;SDS011;11707;50.830;4.364;2024-03-23T14:36:03;4.25;;;1.17;;
23078;SDS011;11707;50.830;4.364;2024-03-23T14:38:30;5.82;;;1.85;;
23078;SDS011;11707;50.830;4.364;2024-03-23T14:40:59;5.28;;;1.50;;
23078;SDS011;11707;50.830;4.364;2024-03-23T14:43:25;7.72;;;1.75;;
23078;SDS011;11707;50.830;4.364;2024-03-23T14:48:39;7.05;;;2.13;;
23078;SDS011;11707;50.830;4.364;2024-03-23T14:51:09;5.43;;;1.30;;
23078;SDS011;11707;50.830;4.364;2024-03-23T14:53:36;6.43;;;2.20;;
23078;SDS011;11707;50.830;4.364;2024-03-23T14:56:05;5.70;;;1.65;;
23078;SDS011;11707;50.830;4.364;2024-03-23T14:58:31;6.30;;;1.17;;
23078;SDS011;11707;50.830;4.364;2024-03-23T15:01:04;8.15;;;1.17;;
23078;SDS011;11707;50.830;4.364;2024-03-23T15:03:34;6.28;;;1.60;;
23078;SDS011;11707;50.830;4.364;2024-03-23T15:06:08;5.10;;;1.83;;
23078;SDS011;11707;50.830;4.364;2024-03-23T15:08:36;9.02;;;1.98;;
23078;SDS011;11707;50.830;4.364;2024-03-23T15:11:03;5.60;;;1.58;;
23078;SDS011;11707;50.830;4.364;2024-03-23T15:13:32;9.93;;;1.90;;
23078;SDS011;11707;50.830;4.364;2024-03-23T15:15:58;6.45;;;1.20;;
23078;SDS011;11707;50.830;4.364;2024-03-23T15:18:24;7.03;;;2.22;;
23078;SDS011;11707;50.830;4.364;2024-03-23T15:20:54;13.60;;;1.77;;
23078;SDS011;11707;50.830;4.364;2024-03-23T15:23:27;5.43;;;1.27;;
23078;SDS011;11707;50.830;4.364;2024-03-23T15:25:59;10.43;;;1.63;;
23078;SDS011;11707;50.830;4.364;2024-03-23T15:28:33;5.35;;;1.65;;
23078;SDS011;11707;50.830;4.364;2024-03-23T15:31:17;6.63;;;1.50;;
23078;SDS011;11707;50.830;4.364;2024-03-23T15:33:45;7.68;;;1.95;;
23078;SDS011;11707;50.830;4.364;2024-03-23T15:36:11;6.22;;;1.42;;
23078;SDS011;11707;50.830;4.364;2024-03-23T15:38:37;7.05;;;1.83;;
23078;SDS011;11707;50.830;4.364;2024-03-23T15:41:03;9.32;;;1.75;;
23078;SDS011;11707;50.830;4.364;2024-03-23T15:43:29;5.60;;;1.50;;
23078;SDS011;11707;50.830;4.364;2024-03-23T15:45:59;9.75;;;1.80;;
23078;SDS011;11707;50.830;4.364;2024-03-23T15:48:29;6.00;;;1.70;;
23078;SDS011;11707;50.830;4.364;2024-03-23T15:51:02;7.03;;;1.65;;
23078;SDS011;11707;50.830;4.364;2024-03-23T15:53:31;8.07;;;1.88;;
23078;SDS011;11707;50.830;4.364;2024-03-23T15:58:27;5.72;;;1.90;;
23078;SDS011;11707;50.830;4.364;2024-03-23T16:00:57;3.72;;;1.48;;
23078;SDS011;11707;50.830;4.364;2024-03-23T16:03:23;7.32;;;2.35;;
23078;SDS011;11707;50.830;4.364;2024-03-23T16:05:56;6.10;;;1.73;;
23078;SDS011;11707;50.830;4.364;2024-03-23T16:08:23;9.00;;;2.30;;
23078;SDS011;11707;50.830;4.364;2024-03-23T16:10:50;7.00;;;1.90;;